createdAt,value
2019-02-17T00:01:16.548Z,875.75
2019-02-17T00:02:16.360Z,875.75
2019-02-17T00:04:09.695Z,875.74
2019-02-17T00:05:09.957Z,875.78
2019-02-17T00:07:03.515Z,875.77
2019-02-17T00:08:03.289Z,875.79
2019-02-17T00:09:56.354Z,875.79
2019-02-17T00:10:56.384Z,875.72
2019-02-17T00:12:50.723Z,875.75
2019-02-17T00:13:50.259Z,875.73
2019-02-17T00:15:43.617Z,875.76
2019-02-17T00:16:43.610Z,875.75
2019-02-17T00:18:37.154Z,875.73
2019-02-17T00:19:37.222Z,875.74
2019-02-17T00:21:30.529Z,875.74
2019-02-17T00:22:30.582Z,875.76
2019-02-17T00:24:24.071Z,875.76
2019-02-17T00:25:23.671Z,875.74
2019-02-17T00:27:16.977Z,875.73
2019-02-17T00:28:17.230Z,875.75
2019-02-17T00:30:10.756Z,875.70
2019-02-17T00:31:10.563Z,875.74
2019-02-17T00:33:03.910Z,875.77
2019-02-17T00:34:03.930Z,875.71
2019-02-17T00:35:57.499Z,875.68
2019-02-17T00:36:57.023Z,875.70
2019-02-17T00:38:50.609Z,875.72
2019-02-17T00:39:50.340Z,875.72
2019-02-17T00:41:43.958Z,875.76
2019-02-17T00:42:43.678Z,875.74
2019-02-17T00:44:37.872Z,875.74
2019-02-17T00:45:37.051Z,875.70
2019-02-17T00:47:30.591Z,875.72
2019-02-17T00:48:30.645Z,875.71
2019-02-17T00:50:23.744Z,875.72
2019-02-17T00:51:23.961Z,875.76
2019-02-17T00:53:17.531Z,875.76
2019-02-17T00:54:17.318Z,875.77
2019-02-17T00:56:10.676Z,875.75
2019-02-17T00:57:10.650Z,875.76
2019-02-17T00:59:10.051Z,875.75
2019-02-17T01:00:03.750Z,875.73
2019-02-17T01:01:57.133Z,875.79
2019-02-17T01:02:57.342Z,875.79
2019-02-17T01:04:50.613Z,875.76
2019-02-17T01:05:50.713Z,875.77
2019-02-17T01:07:43.788Z,875.74
2019-02-17T01:08:44.054Z,875.75
2019-02-17T01:10:37.389Z,875.76
2019-02-17T01:11:37.108Z,875.73
2019-02-17T01:13:30.716Z,875.74
2019-02-17T01:14:30.679Z,875.74
2019-02-17T01:16:25.032Z,875.71
2019-02-17T01:17:23.792Z,875.69
2019-02-17T01:19:17.500Z,875.71
2019-02-17T01:20:17.388Z,875.68
2019-02-17T01:22:10.701Z,875.67
2019-02-17T01:23:10.748Z,875.64
2019-02-17T01:25:03.856Z,875.59
2019-02-17T01:26:03.831Z,875.61
2019-02-17T01:27:57.653Z,875.59
2019-02-17T01:28:57.210Z,875.61
2019-02-17T01:30:50.558Z,875.61
2019-02-17T01:31:50.517Z,875.62
2019-02-17T01:33:44.352Z,875.59
2019-02-17T01:34:43.889Z,875.54
2019-02-17T01:36:37.510Z,875.53
2019-02-17T01:37:37.202Z,875.55
2019-02-17T01:39:30.979Z,875.51
2019-02-17T01:40:30.569Z,875.52
2019-02-17T01:42:23.892Z,875.50
2019-02-17T01:43:23.925Z,875.48
2019-02-17T01:45:17.442Z,875.48
2019-02-17T01:46:17.450Z,875.46
2019-02-17T01:48:10.814Z,875.50
2019-02-17T01:49:10.599Z,875.48
2019-02-17T01:51:04.390Z,875.49
2019-02-17T01:52:04.135Z,875.49
2019-02-17T01:53:57.253Z,875.40
2019-02-17T01:54:57.478Z,875.42
2019-02-17T01:56:51.040Z,875.41
2019-02-17T01:57:50.591Z,875.40
2019-02-17T01:59:44.065Z,875.37
2019-02-17T02:00:44.227Z,875.37
2019-02-17T02:02:37.760Z,875.34
2019-02-17T02:03:37.273Z,875.32
2019-02-17T02:05:30.631Z,875.34
2019-02-17T02:06:30.887Z,875.30
2019-02-17T02:08:24.477Z,875.26
2019-02-17T02:09:24.011Z,875.28
2019-02-17T02:11:17.359Z,875.23
2019-02-17T02:12:17.565Z,875.24
2019-02-17T02:14:10.886Z,875.22
2019-02-17T02:15:10.908Z,875.25
2019-02-17T02:17:04.050Z,875.21
2019-02-17T02:18:03.993Z,875.19
2019-02-17T02:19:57.112Z,875.17
2019-02-17T02:20:57.106Z,875.15
2019-02-17T02:22:50.467Z,875.13
2019-02-17T02:23:50.461Z,875.12
2019-02-17T02:25:43.783Z,875.14
2019-02-17T02:26:43.768Z,875.09
2019-02-17T02:28:37.135Z,875.03
2019-02-17T02:29:40.947Z,875.03
2019-02-17T02:31:30.492Z,875.05
2019-02-17T02:32:30.486Z,874.98
2019-02-17T02:34:23.838Z,874.97
2019-02-17T02:35:23.852Z,874.96
2019-02-17T02:37:17.480Z,874.95
2019-02-17T02:38:16.959Z,874.96
2019-02-17T02:40:10.556Z,874.89
2019-02-17T02:41:10.559Z,874.88
2019-02-17T02:43:03.792Z,874.83
2019-02-17T02:44:03.865Z,874.85
2019-02-17T02:45:56.991Z,874.79
2019-02-17T02:46:57.235Z,874.78
2019-02-17T02:48:50.933Z,874.76
2019-02-17T02:49:50.312Z,874.73
2019-02-17T02:51:43.934Z,874.74
2019-02-17T02:52:43.629Z,874.75
2019-02-17T02:54:38.080Z,874.75
2019-02-17T02:55:36.985Z,874.69
2019-02-17T02:57:30.369Z,874.71
2019-02-17T02:58:30.587Z,874.71
2019-02-17T03:00:23.889Z,874.66
2019-02-17T03:01:23.941Z,874.66
2019-02-17T03:03:17.311Z,874.68
2019-02-17T03:04:17.001Z,874.66
2019-02-17T03:06:10.591Z,874.61
2019-02-17T03:07:10.613Z,874.58
2019-02-17T03:09:03.729Z,874.59
2019-02-17T03:10:03.922Z,874.59
2019-02-17T03:11:57.734Z,874.57
2019-02-17T03:12:57.305Z,874.55
2019-02-17T03:14:50.454Z,874.48
2019-02-17T03:15:50.666Z,874.42
2019-02-17T03:17:44.043Z,874.39
2019-02-17T03:18:43.983Z,874.38
2019-02-17T03:20:37.365Z,874.35
2019-02-17T03:21:37.099Z,874.33
2019-02-17T03:23:30.918Z,874.33
2019-02-17T03:24:30.705Z,874.33
2019-02-17T03:26:24.025Z,874.31
2019-02-17T03:27:23.779Z,874.32
2019-02-17T03:29:17.344Z,874.37
2019-02-17T03:30:17.158Z,874.27
2019-02-17T03:32:10.512Z,874.28
2019-02-17T03:33:10.508Z,874.32
2019-02-17T03:35:04.277Z,874.28
2019-02-17T03:36:03.851Z,874.28
2019-02-17T03:37:57.442Z,874.25
2019-02-17T03:38:57.443Z,874.26
2019-02-17T03:40:50.783Z,874.21
2019-02-17T03:41:50.728Z,874.21
2019-02-17T03:43:43.846Z,874.15
2019-02-17T03:44:44.090Z,874.16
2019-02-17T03:46:37.428Z,874.09
2019-02-17T03:47:37.174Z,874.10
2019-02-17T03:49:30.535Z,874.07
2019-02-17T03:50:30.791Z,874.07
2019-02-17T03:52:24.068Z,874.04
2019-02-17T03:53:24.150Z,874.03
2019-02-17T03:55:18.077Z,874.02
2019-02-17T03:56:17.469Z,874.02
2019-02-17T03:58:11.022Z,873.98
2019-02-17T03:59:10.828Z,873.92
2019-02-17T04:01:03.908Z,873.92
2019-02-17T04:02:04.145Z,873.88
2019-02-17T04:03:57.682Z,873.84
2019-02-17T04:04:57.522Z,873.86
2019-02-17T04:06:50.850Z,873.83
2019-02-17T04:07:50.609Z,873.86
2019-02-17T04:09:44.147Z,873.83
2019-02-17T04:10:43.921Z,873.82
2019-02-17T04:12:37.280Z,873.83
2019-02-17T04:13:37.522Z,873.79
2019-02-17T04:15:31.077Z,873.75
2019-02-17T04:16:30.639Z,873.73
2019-02-17T04:18:23.996Z,873.71
2019-02-17T04:19:23.976Z,873.69
2019-02-17T04:21:17.513Z,873.66
2019-02-17T04:22:17.289Z,873.64
2019-02-17T04:24:10.677Z,873.60
2019-02-17T04:25:10.862Z,873.60
2019-02-17T04:27:04.188Z,873.61
2019-02-17T04:28:03.970Z,873.51
2019-02-17T04:29:57.364Z,873.55
2019-02-17T04:30:57.588Z,873.52
2019-02-17T04:32:50.901Z,873.54
2019-02-17T04:33:50.657Z,873.49
2019-02-17T04:35:44.041Z,873.50
2019-02-17T04:36:44.292Z,873.44
2019-02-17T04:38:37.864Z,873.40
2019-02-17T04:39:37.628Z,873.39
2019-02-17T04:41:30.946Z,873.37
2019-02-17T04:42:30.680Z,873.35
2019-02-17T04:44:24.215Z,873.30
2019-02-17T04:45:24.262Z,873.28
2019-02-17T04:47:17.648Z,873.23
2019-02-17T04:48:17.639Z,873.19
2019-02-17T04:50:11.226Z,873.16
2019-02-17T04:51:10.755Z,873.13
2019-02-17T04:53:04.331Z,873.07
2019-02-17T04:54:04.061Z,873.07
2019-02-17T04:55:57.901Z,873.04
2019-02-17T04:56:57.445Z,873.06
2019-02-17T04:58:51.034Z,873.02
2019-02-17T04:59:50.785Z,872.97
2019-02-17T05:01:44.535Z,872.95
2019-02-17T05:02:44.095Z,872.91
2019-02-17T05:04:37.700Z,872.87
2019-02-17T05:05:37.466Z,872.83
2019-02-17T05:07:31.312Z,872.76
2019-02-17T05:08:30.844Z,872.72
2019-02-17T05:10:24.376Z,872.67
2019-02-17T05:11:24.397Z,872.68
2019-02-17T05:13:17.923Z,872.64
2019-02-17T05:14:17.500Z,872.59
2019-02-17T05:16:10.816Z,872.58
2019-02-17T05:17:10.809Z,872.58
2019-02-17T05:19:04.379Z,872.50
2019-02-17T05:20:04.142Z,872.47
2019-02-17T05:21:57.726Z,872.46
2019-02-17T05:22:57.738Z,872.42
2019-02-17T05:24:51.104Z,872.39
2019-02-17T05:25:50.876Z,872.40
2019-02-17T05:27:44.192Z,872.39
2019-02-17T05:28:44.191Z,872.37
2019-02-17T05:30:37.751Z,872.32
2019-02-17T05:31:37.528Z,872.31
2019-02-17T05:33:30.877Z,872.25
2019-02-17T05:34:30.869Z,872.27
2019-02-17T05:36:24.718Z,872.28
2019-02-17T05:37:24.203Z,872.25
2019-02-17T05:39:17.612Z,872.22
2019-02-17T05:40:17.558Z,872.23
2019-02-17T05:42:11.084Z,872.17
2019-02-17T05:43:11.141Z,872.16
2019-02-17T05:45:04.262Z,872.08
2019-02-17T05:46:04.519Z,872.11
2019-02-17T05:47:58.018Z,872.06
2019-02-17T05:48:57.622Z,872.03
2019-02-17T05:50:51.207Z,872.01
2019-02-17T05:51:50.958Z,872.00
2019-02-17T05:53:44.781Z,871.98
2019-02-17T05:54:44.282Z,871.94
2019-02-17T05:56:37.658Z,871.88
2019-02-17T05:57:37.671Z,871.92
2019-02-17T05:59:31.586Z,871.85
2019-02-17T06:00:31.297Z,871.88
2019-02-17T06:02:24.334Z,871.85
2019-02-17T06:03:24.598Z,871.82
2019-02-17T06:05:17.948Z,871.79
2019-02-17T06:06:17.685Z,871.79
2019-02-17T06:08:11.289Z,871.73
2019-02-17T06:09:11.278Z,871.73
2019-02-17T06:11:04.842Z,871.68
2019-02-17T06:12:04.593Z,871.70
2019-02-17T06:13:58.371Z,871.68
2019-02-17T06:14:58.364Z,871.61
2019-02-17T06:16:51.972Z,871.62
2019-02-17T06:17:51.984Z,871.58
2019-02-17T06:19:45.337Z,871.60
2019-02-17T06:20:45.062Z,871.58
2019-02-17T06:22:38.638Z,871.58
2019-02-17T06:23:38.656Z,871.53
2019-02-17T06:25:32.024Z,871.53
2019-02-17T06:26:31.764Z,871.51
2019-02-17T06:28:25.309Z,871.51
2019-02-17T06:29:25.116Z,871.49
2019-02-17T06:31:18.692Z,871.48
2019-02-17T06:32:18.657Z,871.47
2019-02-17T06:34:12.256Z,871.47
2019-02-17T06:35:11.769Z,871.45
2019-02-17T06:37:05.152Z,871.39
2019-02-17T06:38:05.097Z,871.38
2019-02-17T06:39:58.887Z,871.35
2019-02-17T06:40:58.673Z,871.34
2019-02-17T06:42:52.038Z,871.30
2019-02-17T06:43:51.846Z,871.30
2019-02-17T06:45:45.374Z,871.27
2019-02-17T06:46:45.411Z,871.30
2019-02-17T06:48:38.538Z,871.22
2019-02-17T06:49:38.715Z,871.20
2019-02-17T06:51:32.049Z,871.19
2019-02-17T06:52:31.862Z,871.17
2019-02-17T06:54:25.483Z,871.15
2019-02-17T06:55:25.212Z,871.12
2019-02-17T06:57:18.974Z,871.06
2019-02-17T06:58:18.549Z,871.09
2019-02-17T07:00:11.898Z,871.08
2019-02-17T07:01:11.897Z,871.05
2019-02-17T07:03:05.424Z,871.03
2019-02-17T07:04:05.533Z,871.00
2019-02-17T07:05:58.868Z,870.98
2019-02-17T07:06:58.830Z,870.93
2019-02-17T07:08:52.109Z,870.92
2019-02-17T07:09:51.905Z,870.92
2019-02-17T07:11:45.393Z,870.88
2019-02-17T07:12:45.502Z,870.85
2019-02-17T07:14:39.047Z,870.84
2019-02-17T07:15:38.562Z,870.79
2019-02-17T07:17:31.922Z,870.79
2019-02-17T07:18:31.902Z,870.79
2019-02-17T07:20:25.698Z,870.78
2019-02-17T07:21:25.289Z,870.78
2019-02-17T07:23:18.651Z,870.77
2019-02-17T07:24:18.855Z,870.74
2019-02-17T07:26:12.197Z,870.72
2019-02-17T07:27:11.971Z,870.73
2019-02-17T07:29:05.535Z,870.68
2019-02-17T07:30:05.281Z,870.71
2019-02-17T07:31:58.437Z,870.68
2019-02-17T07:32:58.185Z,870.71
2019-02-17T07:34:51.545Z,870.65
2019-02-17T07:35:51.502Z,870.64
2019-02-17T07:37:45.343Z,870.66
2019-02-17T07:38:44.840Z,870.66
2019-02-17T07:40:38.451Z,870.65
2019-02-17T07:41:38.446Z,870.62
2019-02-17T07:43:31.976Z,870.58
2019-02-17T07:44:31.561Z,870.61
2019-02-17T07:46:25.120Z,870.60
2019-02-17T07:47:24.917Z,870.61
2019-02-17T07:49:18.494Z,870.58
2019-02-17T07:50:18.248Z,870.58
2019-02-17T07:52:11.845Z,870.56
2019-02-17T07:53:11.865Z,870.57
2019-02-17T07:55:05.346Z,870.58
2019-02-17T07:56:04.912Z,870.55
2019-02-17T07:57:58.265Z,870.61
2019-02-17T07:58:58.516Z,870.57
2019-02-17T08:00:51.817Z,870.54
2019-02-17T08:01:51.618Z,870.53
2019-02-17T08:03:44.994Z,870.52
2019-02-17T08:04:44.951Z,870.52
2019-02-17T08:06:38.822Z,870.53
2019-02-17T08:07:38.593Z,870.51
2019-02-17T08:09:32.247Z,870.48
2019-02-17T08:10:31.896Z,870.48
2019-02-17T08:12:25.413Z,870.43
2019-02-17T08:13:25.226Z,870.45
2019-02-17T08:15:18.346Z,870.35
2019-02-17T08:16:18.380Z,870.34
2019-02-17T08:18:12.161Z,870.32
2019-02-17T08:19:11.913Z,870.36
2019-02-17T08:21:05.306Z,870.28
2019-02-17T08:22:05.020Z,870.27
2019-02-17T08:23:58.606Z,870.26
2019-02-17T08:24:58.366Z,870.25
2019-02-17T08:26:51.983Z,870.24
2019-02-17T08:27:51.960Z,870.24
2019-02-17T08:29:45.562Z,870.24
2019-02-17T08:30:45.332Z,870.20
2019-02-17T08:32:38.451Z,870.18
2019-02-17T08:33:38.635Z,870.16
2019-02-17T08:35:31.991Z,870.12
2019-02-17T08:36:32.010Z,870.10
2019-02-17T08:38:25.151Z,870.09
2019-02-17T08:39:25.397Z,870.12
2019-02-17T08:41:18.698Z,870.06
2019-02-17T08:42:18.671Z,870.06
2019-02-17T08:44:12.083Z,870.09
2019-02-17T08:45:12.034Z,870.08
2019-02-17T08:47:05.317Z,870.05
2019-02-17T08:48:05.128Z,870.05
2019-02-17T08:49:58.490Z,870.03
2019-02-17T08:50:58.733Z,870.07
2019-02-17T08:52:52.061Z,870.06
2019-02-17T08:53:52.061Z,870.04
2019-02-17T08:55:45.465Z,870.02
2019-02-17T08:56:45.401Z,870.08
2019-02-17T08:58:39.052Z,870.06
2019-02-17T08:59:38.539Z,870.06
2019-02-17T09:01:32.140Z,870.04
2019-02-17T09:02:32.111Z,870.05
2019-02-17T09:04:25.512Z,870.04
2019-02-17T09:05:25.465Z,870.04
2019-02-17T09:07:18.672Z,870.04
2019-02-17T09:08:18.810Z,870.02
2019-02-17T09:10:12.378Z,870.00
2019-02-17T09:11:11.927Z,870.00
2019-02-17T09:13:05.300Z,869.99
2019-02-17T09:14:05.504Z,869.94
2019-02-17T09:15:59.098Z,869.95
2019-02-17T09:16:58.640Z,870.00
2019-02-17T09:18:52.246Z,869.97
2019-02-17T09:19:51.937Z,869.98
2019-02-17T09:21:45.552Z,869.98
2019-02-17T09:22:45.294Z,869.93
2019-02-17T09:24:38.685Z,869.93
2019-02-17T09:25:38.684Z,869.91
2019-02-17T09:27:32.250Z,869.91
2019-02-17T09:28:31.983Z,869.89
2019-02-17T09:30:25.579Z,869.89
2019-02-17T09:31:25.326Z,869.88
2019-02-17T09:33:18.933Z,869.89
2019-02-17T09:34:18.934Z,869.90
2019-02-17T09:36:12.082Z,869.88
2019-02-17T09:37:12.057Z,869.83
2019-02-17T09:39:05.601Z,869.82
2019-02-17T09:40:05.372Z,869.85
2019-02-17T09:41:58.754Z,869.84
2019-02-17T09:42:58.942Z,869.85
2019-02-17T09:44:52.249Z,869.84
2019-02-17T09:45:52.101Z,869.84
2019-02-17T09:47:45.438Z,869.84
2019-02-17T09:48:45.663Z,869.82
2019-02-17T09:50:38.948Z,869.83
2019-02-17T09:51:38.756Z,869.77
2019-02-17T09:53:32.157Z,869.78
2019-02-17T09:54:32.135Z,869.78
2019-02-17T09:56:25.914Z,869.76
2019-02-17T09:57:25.482Z,869.77
2019-02-17T09:59:18.853Z,869.78
2019-02-17T10:00:19.058Z,869.77
2019-02-17T10:02:12.408Z,869.75
2019-02-17T10:03:12.183Z,869.76
2019-02-17T10:05:05.783Z,869.78
2019-02-17T10:06:05.733Z,869.78
2019-02-17T10:07:59.198Z,869.76
2019-02-17T10:08:58.875Z,869.77
2019-02-17T10:10:52.464Z,869.80
2019-02-17T10:11:52.461Z,869.80
2019-02-17T10:13:46.069Z,869.79
2019-02-17T10:14:45.536Z,869.82
2019-02-17T10:16:39.197Z,869.79
2019-02-17T10:17:38.878Z,869.80
2019-02-17T10:19:32.687Z,869.81
2019-02-17T10:20:32.467Z,869.81
2019-02-17T10:22:25.879Z,869.81
2019-02-17T10:23:25.583Z,869.79
2019-02-17T10:25:19.153Z,869.82
2019-02-17T10:26:19.217Z,869.78
2019-02-17T10:28:12.313Z,869.76
2019-02-17T10:29:12.268Z,869.76
2019-02-17T10:31:05.800Z,869.76
2019-02-17T10:32:05.842Z,869.76
2019-02-17T10:33:59.011Z,869.73
2019-02-17T10:34:59.230Z,869.74
2019-02-17T10:36:52.791Z,869.75
2019-02-17T10:37:52.307Z,869.74
2019-02-17T10:39:45.708Z,869.76
2019-02-17T10:40:45.957Z,869.76
2019-02-17T10:42:39.231Z,869.78
2019-02-17T10:43:39.258Z,869.80
2019-02-17T10:45:31.876Z,869.79
2019-02-17T10:46:32.091Z,869.79
2019-02-17T10:48:25.697Z,869.76
2019-02-17T10:49:25.460Z,869.75
2019-02-17T10:51:18.823Z,869.76
2019-02-17T10:52:18.550Z,869.78
2019-02-17T10:54:12.096Z,869.80
2019-02-17T10:55:12.190Z,869.76
2019-02-17T10:57:05.490Z,869.75
2019-02-17T10:58:05.253Z,869.78
2019-02-17T10:59:59.104Z,869.79
2019-02-17T11:00:58.831Z,869.83
2019-02-17T11:02:51.957Z,869.85
2019-02-17T11:03:52.183Z,869.84
2019-02-17T11:05:45.821Z,869.86
2019-02-17T11:06:45.316Z,869.86
2019-02-17T11:08:38.906Z,869.91
2019-02-17T11:09:38.665Z,869.89
2019-02-17T11:11:32.195Z,869.88
2019-02-17T11:12:32.015Z,869.88
2019-02-17T11:14:25.639Z,869.93
2019-02-17T11:15:25.366Z,869.92
2019-02-17T11:17:19.153Z,869.91
2019-02-17T11:18:18.943Z,869.91
2019-02-17T11:20:12.299Z,869.95
2019-02-17T11:21:12.277Z,869.93
2019-02-17T11:23:05.647Z,869.90
2019-02-17T11:24:05.588Z,869.92
2019-02-17T11:25:58.248Z,869.94
2019-02-17T11:26:58.266Z,869.94
2019-02-17T11:28:51.825Z,869.92
2019-02-17T11:29:51.578Z,869.90
2019-02-17T11:31:45.170Z,869.87
2019-02-17T11:32:45.154Z,869.89
2019-02-17T11:34:38.681Z,869.88
2019-02-17T11:35:38.296Z,869.87
2019-02-17T11:37:31.888Z,869.87
2019-02-17T11:38:31.612Z,869.90
2019-02-17T11:40:25.430Z,869.91
2019-02-17T11:41:25.189Z,869.91
2019-02-17T11:43:18.351Z,869.90
2019-02-17T11:44:18.550Z,869.88
2019-02-17T11:46:11.920Z,869.92
2019-02-17T11:47:11.897Z,869.89
2019-02-17T11:49:05.225Z,869.90
2019-02-17T11:50:05.031Z,869.90
2019-02-17T11:51:58.560Z,869.88
2019-02-17T11:52:58.336Z,869.91
2019-02-17T11:54:51.714Z,869.90
2019-02-17T11:55:51.912Z,869.90
2019-02-17T11:57:45.262Z,869.88
2019-02-17T11:58:45.319Z,869.84
2019-02-17T12:00:38.636Z,869.84
2019-02-17T12:01:38.408Z,869.84
2019-02-17T12:03:32.180Z,869.86
2019-02-17T12:04:32.000Z,869.87
2019-02-17T12:06:25.075Z,869.85
2019-02-17T12:07:25.060Z,869.85
2019-02-17T12:09:18.600Z,869.85
2019-02-17T12:10:18.411Z,869.85
2019-02-17T12:12:13.649Z,869.84
2019-02-17T12:13:11.766Z,869.85
2019-02-17T12:15:06.300Z,869.83
2019-02-17T12:16:05.669Z,869.83
2019-02-17T12:17:59.356Z,869.86
2019-02-17T12:18:59.296Z,869.86
2019-02-17T12:20:52.825Z,869.85
2019-02-17T12:21:52.581Z,869.82
2019-02-17T12:23:45.950Z,869.80
2019-02-17T12:24:45.712Z,869.82
2019-02-17T12:26:39.505Z,869.80
2019-02-17T12:27:39.035Z,869.78
2019-02-17T12:29:32.481Z,869.74
2019-02-17T12:30:32.638Z,869.77
2019-02-17T12:32:25.969Z,869.77
2019-02-17T12:33:25.727Z,869.77
2019-02-17T12:35:19.115Z,869.79
2019-02-17T12:36:19.335Z,869.75
2019-02-17T12:38:12.921Z,869.76
2019-02-17T12:39:14.985Z,869.76
2019-02-17T12:41:06.057Z,869.77
2019-02-17T12:42:06.035Z,869.80
2019-02-17T12:43:59.332Z,869.80
2019-02-17T12:44:59.147Z,869.81
2019-02-17T12:46:53.059Z,869.80
2019-02-17T12:47:58.191Z,869.81
2019-02-17T12:49:46.020Z,869.80
2019-02-17T12:50:46.032Z,869.80
2019-02-17T12:52:46.772Z,869.82
2019-02-17T12:53:39.174Z,869.83
2019-02-17T12:55:32.724Z,869.82
2019-02-17T12:56:32.493Z,869.81
2019-02-17T12:58:30.063Z,869.81
2019-02-17T12:59:25.344Z,869.78
2019-02-17T13:01:18.935Z,869.79
2019-02-17T13:02:18.688Z,869.81
2019-02-17T13:04:12.284Z,869.76
2019-02-17T13:05:12.084Z,869.79
2019-02-17T13:07:05.892Z,869.79
2019-02-17T13:08:05.419Z,869.78
2019-02-17T13:09:58.748Z,869.81
2019-02-17T13:10:58.997Z,869.80
2019-02-17T13:12:52.299Z,869.84
2019-02-17T13:13:52.330Z,869.84
2019-02-17T13:15:45.691Z,869.81
2019-02-17T13:16:45.691Z,869.80
2019-02-17T13:18:39.210Z,869.78
2019-02-17T13:19:38.756Z,869.76
2019-02-17T13:21:32.119Z,869.78
2019-02-17T13:22:32.365Z,869.77
2019-02-17T13:24:27.533Z,869.77
2019-02-17T13:25:25.486Z,869.78
2019-02-17T13:27:19.081Z,869.78
2019-02-17T13:28:18.793Z,869.76
2019-02-17T13:30:12.369Z,869.77
2019-02-17T13:31:12.418Z,869.75
2019-02-17T13:33:05.511Z,869.75
2019-02-17T13:34:05.496Z,869.78
2019-02-17T13:35:59.313Z,869.78
2019-02-17T13:36:59.140Z,869.74
2019-02-17T13:38:52.448Z,869.74
2019-02-17T13:39:52.455Z,869.78
2019-02-17T13:41:45.765Z,869.75
2019-02-17T13:42:45.807Z,869.72
2019-02-17T13:44:39.171Z,869.74
2019-02-17T13:45:38.900Z,869.72
2019-02-17T13:47:32.716Z,869.71
2019-02-17T13:48:32.502Z,869.72
2019-02-17T13:50:25.829Z,869.68
2019-02-17T13:51:25.793Z,869.65
2019-02-17T13:53:19.394Z,869.70
2019-02-17T13:54:18.951Z,869.69
2019-02-17T13:56:12.543Z,869.67
2019-02-17T13:57:12.510Z,869.72
2019-02-17T13:59:06.091Z,869.70
2019-02-17T14:00:05.904Z,869.66
2019-02-17T14:01:59.006Z,869.65
2019-02-17T14:02:59.225Z,869.64
2019-02-17T14:04:52.518Z,869.70
2019-02-17T14:05:52.548Z,869.64
2019-02-17T14:07:46.063Z,869.64
2019-02-17T14:08:45.931Z,869.63
2019-02-17T14:10:39.262Z,869.61
2019-02-17T14:11:38.988Z,869.63
2019-02-17T14:13:32.367Z,869.62
2019-02-17T14:14:32.556Z,869.65
2019-02-17T14:16:26.440Z,869.65
2019-02-17T14:17:26.239Z,869.69
2019-02-17T14:19:19.612Z,869.70
2019-02-17T14:20:19.593Z,869.65
2019-02-17T14:22:13.103Z,869.70
2019-02-17T14:23:12.914Z,869.69
2019-02-17T14:25:06.527Z,869.67
2019-02-17T14:26:06.266Z,869.67
2019-02-17T14:28:00.056Z,869.64
2019-02-17T14:28:59.844Z,869.65
2019-02-17T14:30:53.003Z,869.66
2019-02-17T14:31:52.933Z,869.67
2019-02-17T14:33:46.473Z,869.67
2019-02-17T14:34:46.307Z,869.68
2019-02-17T14:36:39.871Z,869.67
2019-02-17T14:37:39.678Z,869.67
2019-02-17T14:39:33.186Z,869.66
2019-02-17T14:40:33.273Z,869.66
2019-02-17T14:42:26.593Z,869.65
2019-02-17T14:43:26.356Z,869.65
2019-02-17T14:45:19.864Z,869.62
2019-02-17T14:46:19.959Z,869.64
2019-02-17T14:48:13.261Z,869.65
2019-02-17T14:49:13.284Z,869.63
2019-02-17T14:51:06.816Z,869.62
2019-02-17T14:52:06.608Z,869.62
2019-02-17T14:53:59.997Z,869.60
2019-02-17T14:54:59.749Z,869.58
2019-02-17T14:56:53.748Z,869.57
2019-02-17T14:57:53.087Z,869.60
2019-02-17T14:59:46.396Z,869.59
2019-02-17T15:00:46.617Z,869.59
2019-02-17T15:02:39.962Z,869.59
2019-02-17T15:03:39.730Z,869.55
2019-02-17T15:05:33.089Z,869.54
2019-02-17T15:06:33.083Z,869.53
2019-02-17T15:08:26.941Z,869.52
2019-02-17T15:09:26.711Z,869.54
2019-02-17T15:11:19.820Z,869.53
2019-02-17T15:12:19.804Z,869.54
2019-02-17T15:14:13.362Z,869.51
2019-02-17T15:15:13.114Z,869.50
2019-02-17T15:17:06.516Z,869.49
2019-02-17T15:18:06.697Z,869.47
2019-02-17T15:20:00.308Z,869.47
2019-02-17T15:20:59.815Z,869.42
2019-02-17T15:22:53.404Z,869.43
2019-02-17T15:23:53.382Z,869.42
2019-02-17T15:25:46.995Z,869.40
2019-02-17T15:26:46.796Z,869.40
2019-02-17T15:28:40.106Z,869.39
2019-02-17T15:29:39.904Z,869.39
2019-02-17T15:31:33.492Z,869.38
2019-02-17T15:32:33.202Z,869.36
2019-02-17T15:34:26.811Z,869.34
2019-02-17T15:35:26.546Z,869.32
2019-02-17T15:37:20.138Z,869.33
2019-02-17T15:38:20.161Z,869.34
2019-02-17T15:40:13.313Z,869.31
2019-02-17T15:41:13.224Z,869.32
2019-02-17T15:43:06.811Z,869.29
2019-02-17T15:44:06.820Z,869.30
2019-02-17T15:45:59.481Z,869.25
2019-02-17T15:46:59.447Z,869.29
2019-02-17T15:48:53.040Z,869.22
2019-02-17T15:49:53.088Z,869.27
2019-02-17T15:51:46.192Z,869.28
2019-02-17T15:52:46.434Z,869.29
2019-02-17T15:54:40.017Z,869.22
2019-02-17T15:55:39.534Z,869.21
2019-02-17T15:57:32.875Z,869.19
2019-02-17T15:58:33.089Z,869.17
2019-02-17T16:00:26.433Z,869.18
2019-02-17T16:01:26.213Z,869.16
2019-02-17T16:03:19.786Z,869.16
2019-02-17T16:04:28.234Z,869.17
2019-02-17T16:06:13.334Z,869.13
2019-02-17T16:07:13.164Z,869.12
2019-02-17T16:09:06.248Z,869.13
2019-02-17T16:10:06.256Z,869.13
2019-02-17T16:12:00.046Z,869.07
2019-02-17T16:12:59.887Z,869.07
2019-02-17T16:14:53.031Z,869.02
2019-02-17T16:15:53.237Z,869.05
2019-02-17T16:17:46.571Z,869.00
2019-02-17T16:18:46.328Z,868.99
2019-02-17T16:20:39.718Z,868.96
2019-02-17T16:21:39.918Z,868.99
2019-02-17T16:23:33.278Z,868.99
2019-02-17T16:24:33.257Z,868.96
2019-02-17T16:26:26.129Z,868.92
2019-02-17T16:27:25.902Z,868.90
2019-02-17T16:29:19.725Z,868.91
2019-02-17T16:30:19.451Z,868.87
2019-02-17T16:32:12.571Z,868.88
2019-02-17T16:33:12.821Z,868.86
2019-02-17T16:35:06.134Z,868.88
2019-02-17T16:36:06.166Z,868.89
2019-02-17T16:37:59.554Z,868.83
2019-02-17T16:38:59.511Z,868.86
2019-02-17T16:40:52.811Z,868.82
2019-02-17T16:41:52.888Z,868.85
2019-02-17T16:43:46.219Z,868.80
2019-02-17T16:44:45.982Z,868.81
2019-02-17T16:46:39.707Z,868.80
2019-02-17T16:47:39.284Z,868.74
2019-02-17T16:49:32.635Z,868.72
2019-02-17T16:50:32.634Z,868.74
2019-02-17T16:52:26.173Z,868.68
2019-02-17T16:53:26.259Z,868.70
2019-02-17T16:55:19.339Z,868.69
2019-02-17T16:56:20.831Z,868.70
2019-02-17T16:58:12.923Z,868.72
2019-02-17T16:59:12.667Z,868.72
2019-02-17T17:01:06.061Z,868.71
2019-02-17T17:02:06.240Z,868.69
2019-02-17T17:03:59.806Z,868.67
2019-02-17T17:04:59.605Z,868.65
2019-02-17T17:06:52.957Z,868.65
2019-02-17T17:07:52.931Z,868.64
2019-02-17T17:09:46.306Z,868.66
2019-02-17T17:10:46.300Z,868.67
2019-02-17T17:12:39.637Z,868.68
2019-02-17T17:13:39.385Z,868.66
2019-02-17T17:15:33.270Z,868.63
2019-02-17T17:16:32.997Z,868.64
2019-02-17T17:18:26.322Z,868.58
2019-02-17T17:19:26.120Z,868.62
2019-02-17T17:21:19.932Z,868.56
2019-02-17T17:22:21.524Z,868.54
2019-02-17T17:24:13.030Z,868.56
2019-02-17T17:25:12.994Z,868.53
2019-02-17T17:27:06.371Z,868.50
2019-02-17T17:28:06.118Z,868.48
2019-02-17T17:29:59.524Z,868.47
2019-02-17T17:30:59.720Z,868.46
2019-02-17T17:32:53.261Z,868.42
2019-02-17T17:33:52.859Z,868.45
2019-02-17T17:35:46.463Z,868.43
2019-02-17T17:36:46.198Z,868.45
2019-02-17T17:38:40.022Z,868.42
2019-02-17T17:39:39.528Z,868.41
2019-02-17T17:41:33.096Z,868.43
2019-02-17T17:42:32.885Z,868.40
2019-02-17T17:44:26.679Z,868.40
2019-02-17T17:45:26.198Z,868.42
2019-02-17T17:47:19.827Z,868.42
2019-02-17T17:48:19.834Z,868.42
2019-02-17T17:50:13.375Z,868.40
2019-02-17T17:51:12.934Z,868.38
2019-02-17T17:53:06.503Z,868.33
2019-02-17T17:54:06.273Z,868.34
2019-02-17T17:55:59.815Z,868.35
2019-02-17T17:56:59.574Z,868.36
2019-02-17T17:58:52.967Z,868.34
2019-02-17T17:59:53.160Z,868.28
2019-02-17T18:01:46.490Z,868.31